Guapiles, Costa Rica
Current Conditions -  °F | °C
As of 6:00 PM on Saturday 25 Oct 2014 (Local Time) from MRPV Reporting Station
Drizzle Drizzle  
Wind Chill: 70°   Ceiling: 1500
Heat Index: 70°   Visibility: 6mi
Dew Point: 68°   Wind: 1mph
Humidity: 94%   Direction: 170°S
Pressure: 30"   Gusts: NA
Location:  10.21°N, 83.79°W
Report Text: MRPV 260000Z 17001KT 280V160 9999 -DZ BCFG BKN015 21/20 A3000 TEMPO 5000 BR
Loading
Personal Weather Stations






























Interactive Weather Map
Tropical Storm Tracking
New forecast layout! Learn more

10-Day Weather Forecast

Advertisements
Track Severe Weather on mobile